»·PEaware :: HAWK263 KSNA-KSNA

HAWK263 :: KSNA-KSNA

FLIGHT INFORMATION

Flight Status: Arrived
Operator: Unknown
More flights by this operator :: More flights under this callsign
Pilot: Anonymous 12651 (12651)
Aircraft: BRITISH AERO HAWK T45 GOSHAWK
(HAWK)
More flights by this aircraft type
Origin: KSNA John Wayne-Orange Co
United States
Destination: KSNA John Wayne-Orange Co
United States
More flights between these airports :: More routes between these airports
Route: SLI
File this flight plan on PilotEdge
Remarks: Practice approaches at KSNA
Altitude:
(Current/Filed)
3,000ft
Speed:
(Current/Filed)
200kts
Departed: 13-Apr-18 02:07 PM
Arrived: 13-Apr-18 02:38 PM
Distance/Time
Traveled:
0nm/0:31
Distance/Time
To Go:
Arrived

Flight Plot

Page will automatically refresh every two minutes.


Map Options




Map Legend


Flown Route
Filed Route
Departure Airport
Arrival Airport
Navaid (VOR, NDB)
Fix

Horizontal Profiles

Position Reports

Time Latitude Longitude Heading Altitude Ground
Speed
13-Apr-18 13:26 33.668856 -117.870561 310 60ft 0kts
13-Apr-18 13:27 33.668857 -117.870562 310 60ft 0kts
13-Apr-18 13:28 33.668858 -117.870564 310 60ft 0kts
13-Apr-18 13:29 33.668859 -117.870565 310 60ft 0kts
13-Apr-18 13:30 33.668860 -117.870566 310 60ft 0kts
13-Apr-18 13:31 33.668861 -117.870568 310 60ft 0kts
13-Apr-18 13:32 33.668862 -117.870569 310 60ft 0kts
13-Apr-18 13:33 33.668863 -117.870570 310 60ft 0kts
13-Apr-18 13:34 33.668864 -117.870571 310 60ft 0kts
13-Apr-18 13:35 33.668865 -117.870573 310 60ft 0kts
13-Apr-18 13:36 33.668866 -117.870574 310 60ft 0kts
13-Apr-18 13:37 33.668867 -117.870575 310 60ft 0kts
13-Apr-18 13:38 33.668867 -117.870576 310 60ft 0kts
13-Apr-18 13:39 33.668868 -117.870578 310 60ft 0kts
13-Apr-18 13:40 33.668870 -117.870579 310 60ft 0kts
13-Apr-18 13:41 33.668871 -117.870581 310 60ft 0kts
13-Apr-18 13:42 33.668872 -117.870582 310 60ft 0kts
13-Apr-18 13:43 33.668873 -117.870584 310 60ft 0kts
13-Apr-18 13:44 33.668874 -117.870585 310 60ft 0kts
13-Apr-18 13:45 33.668875 -117.870587 310 60ft 0kts
13-Apr-18 13:46 33.668876 -117.870589 310 60ft 0kts
13-Apr-18 13:47 33.668877 -117.870590 310 60ft 0kts
13-Apr-18 13:48 33.668878 -117.870592 310 60ft 0kts
13-Apr-18 13:49 33.668879 -117.870593 310 60ft 0kts
13-Apr-18 13:50 33.668880 -117.870594 310 60ft 0kts
13-Apr-18 13:51 33.668881 -117.870596 310 60ft 0kts
13-Apr-18 13:52 33.668882 -117.870597 310 60ft 0kts
13-Apr-18 13:53 33.668883 -117.870599 310 60ft 0kts
13-Apr-18 13:54 33.668884 -117.870600 310 60ft 0kts
13-Apr-18 13:55 33.668886 -117.870602 310 60ft 0kts
13-Apr-18 13:56 33.668886 -117.870603 310 60ft 0kts
13-Apr-18 13:57 33.668887 -117.870604 310 60ft 0kts
13-Apr-18 13:58 33.668888 -117.870606 310 60ft 0kts
13-Apr-18 13:59 33.670088 -117.870261 36 60ft 11kts
13-Apr-18 14:00 33.673365 -117.866646 41 61ft 19kts
13-Apr-18 14:03 33.680617 -117.863119 299 60ft 0kts
13-Apr-18 14:04 33.680618 -117.863120 299 60ft 0kts
13-Apr-18 14:05 33.680814 -117.863529 298 61ft 13kts
13-Apr-18 14:06 33.675437 -117.869008 212 70ft 141kts
13-Apr-18 14:07 33.626380 -117.905707 220 2002ft 229kts
13-Apr-18 14:08 33.601703 -117.968346 284 2945ft 252kts
13-Apr-18 14:09 33.652605 -117.979992 28 2955ft 197kts
13-Apr-18 14:10 33.699096 -117.952975 29 2986ft 181kts
13-Apr-18 14:11 33.748120 -117.925192 27 2972ft 205kts
13-Apr-18 14:12 33.799543 -117.894593 27 2964ft 208kts
13-Apr-18 14:13 33.848541 -117.860591 33 2993ft 196kts
13-Apr-18 14:14 33.893687 -117.826128 54 2966ft 189kts
13-Apr-18 14:15 33.889743 -117.768741 129 2958ft 178kts
13-Apr-18 14:16 33.837021 -117.769837 183 2951ft 196kts
13-Apr-18 14:17 33.797513 -117.791930 206 2524ft 154kts
13-Apr-18 14:18 33.762099 -117.814878 208 1804ft 135kts
13-Apr-18 14:19 33.726546 -117.836380 206 1064ft 151kts
13-Apr-18 14:20 33.690320 -117.859551 210 318ft 125kts
13-Apr-18 14:21 33.648523 -117.885730 206 1834ft 204kts
13-Apr-18 14:22 33.600677 -117.915305 205 3083ft 211kts
13-Apr-18 14:23 33.552238 -117.959208 248 3002ft 228kts
13-Apr-18 14:24 33.589997 -117.988653 11 2977ft 196kts
13-Apr-18 14:25 33.646295 -117.978901 11 2998ft 211kts
13-Apr-18 14:26 33.699315 -117.961750 33 2894ft 193kts
13-Apr-18 14:27 33.746868 -117.928918 32 2951ft 204kts
13-Apr-18 14:28 33.797243 -117.892303 32 2994ft 213kts
13-Apr-18 14:29 33.844353 -117.858947 32 2921ft 184kts
13-Apr-18 14:30 33.887520 -117.824522 68 2955ft 197kts
13-Apr-18 14:31 33.881819 -117.759593 124 2902ft 191kts
13-Apr-18 14:32 33.838665 -117.766545 203 2863ft 159kts
13-Apr-18 14:33 33.798854 -117.790273 209 2594ft 167kts
13-Apr-18 14:34 33.759111 -117.815732 208 1609ft 153kts
13-Apr-18 14:35 33.722729 -117.838468 203 885ft 161kts
13-Apr-18 14:36 33.689041 -117.860366 211 251ft 126kts
13-Apr-18 14:37 33.669211 -117.872291 121 61ft 9kts
13-Apr-18 14:38 33.668957 -117.870929 86 61ft 8kts

Navigation Log

Ident Type
Flight plan parsing failed, navigation log unavailable